createdAt,value
2023-03-28T00:00:47.175Z,9.90
2023-03-28T00:03:14.635Z,6.97
2023-03-28T00:05:41.313Z,10.80
2023-03-28T00:08:08.537Z,9.00
2023-03-28T00:10:35.068Z,12.50
2023-03-28T00:13:01.579Z,9.97
2023-03-28T00:15:28.740Z,7.80
2023-03-28T00:17:55.427Z,14.93
2023-03-28T00:20:21.980Z,11.00
2023-03-28T00:22:49.505Z,12.63
2023-03-28T00:25:16.126Z,10.53
2023-03-28T00:27:42.610Z,12.83
2023-03-28T00:30:09.617Z,14.90
2023-03-28T00:32:36.255Z,10.90
2023-03-28T00:35:03.008Z,13.57
2023-03-28T00:37:30.014Z,9.90
2023-03-28T00:40:01.918Z,11.03
2023-03-28T00:42:28.653Z,9.60
2023-03-28T00:44:56.598Z,10.77
2023-03-28T00:47:38.201Z,7.83
2023-03-28T00:50:08.822Z,14.67
2023-03-28T00:52:39.996Z,10.77
2023-03-28T00:55:08.243Z,9.53
2023-03-28T00:57:34.868Z,9.93
2023-03-28T01:00:01.417Z,12.27
2023-03-28T01:02:28.101Z,8.23
2023-03-28T01:04:57.812Z,11.40
2023-03-28T01:07:25.585Z,13.97
2023-03-28T01:09:52.199Z,11.30
2023-03-28T01:12:19.846Z,11.47
2023-03-28T01:14:46.639Z,10.03
2023-03-28T01:17:13.777Z,10.63
2023-03-28T01:19:42.986Z,11.83
2023-03-28T01:22:28.191Z,13.23
2023-03-28T01:24:57.708Z,10.70
2023-03-28T01:27:45.657Z,15.07
2023-03-28T01:30:31.783Z,9.53
2023-03-28T01:33:16.736Z,14.30
2023-03-28T01:36:02.217Z,10.73
2023-03-28T01:38:54.026Z,8.80
2023-03-28T01:41:32.794Z,12.37
2023-03-28T01:44:05.982Z,13.30
2023-03-28T01:46:34.130Z,12.77
2023-03-28T01:49:10.508Z,9.90
2023-03-28T01:51:37.601Z,14.07
2023-03-28T01:54:04.197Z,17.07
2023-03-28T01:56:30.783Z,12.13
2023-03-28T01:58:57.531Z,11.73
2023-03-28T02:01:36.796Z,11.70
2023-03-28T02:04:07.283Z,11.10
2023-03-28T02:06:49.916Z,9.03
2023-03-28T02:09:17.569Z,8.67
2023-03-28T02:11:44.381Z,10.37
2023-03-28T02:14:14.456Z,14.00
2023-03-28T02:16:42.130Z,13.13
2023-03-28T02:19:09.521Z,13.17
2023-03-28T02:21:47.985Z,12.10
2023-03-28T02:24:14.568Z,12.33
2023-03-28T02:26:41.579Z,14.53
2023-03-28T02:29:09.038Z,19.30
2023-03-28T02:31:36.229Z,15.03
2023-03-28T02:34:03.316Z,15.40
2023-03-28T02:36:39.063Z,12.53
2023-03-28T02:39:08.648Z,13.97
2023-03-28T02:42:01.838Z,15.67
2023-03-28T02:44:31.402Z,12.23
2023-03-28T02:47:16.905Z,13.13
2023-03-28T02:49:50.757Z,16.03
2023-03-28T02:52:34.923Z,13.17
2023-03-28T02:55:05.516Z,12.33
2023-03-28T02:57:38.468Z,10.17
2023-03-28T03:00:13.543Z,13.57
2023-03-28T03:02:42.028Z,13.80
2023-03-28T03:05:09.789Z,11.10
2023-03-28T03:07:39.880Z,9.33
2023-03-28T03:10:07.403Z,9.93
2023-03-28T03:12:34.184Z,11.03
2023-03-28T03:15:01.798Z,17.67
2023-03-28T03:17:28.933Z,14.30
2023-03-28T03:19:56.208Z,14.50
2023-03-28T03:22:23.119Z,10.90
2023-03-28T03:24:51.112Z,18.27
2023-03-28T03:27:18.884Z,12.53
2023-03-28T03:29:46.207Z,14.50
2023-03-28T03:32:12.877Z,13.10
2023-03-28T03:34:41.377Z,14.43
2023-03-28T03:37:11.328Z,13.67
2023-03-28T03:39:37.847Z,11.90
2023-03-28T03:42:04.382Z,16.13
2023-03-28T03:44:31.177Z,10.67
2023-03-28T03:46:58.544Z,15.37
2023-03-28T03:49:25.324Z,15.70
2023-03-28T03:51:52.026Z,15.13
2023-03-28T03:54:19.110Z,10.80
2023-03-28T03:56:46.139Z,11.17
2023-03-28T03:59:12.853Z,8.33
2023-03-28T04:01:40.086Z,11.63
2023-03-28T04:04:07.820Z,11.60
2023-03-28T04:06:34.349Z,10.07
2023-03-28T04:09:01.022Z,7.77
2023-03-28T04:11:27.594Z,11.97
2023-03-28T04:13:54.157Z,10.13
2023-03-28T04:16:41.759Z,11.77
2023-03-28T04:19:10.846Z,13.80
2023-03-28T04:21:48.133Z,16.93
2023-03-28T04:24:15.785Z,13.20
2023-03-28T04:26:43.272Z,12.53
2023-03-28T04:29:10.574Z,17.77
2023-03-28T04:31:38.998Z,9.90
2023-03-28T04:34:06.365Z,8.93
2023-03-28T04:36:33.217Z,10.53
2023-03-28T04:39:02.513Z,14.93
2023-03-28T04:41:32.104Z,9.80
2023-03-28T04:43:58.777Z,14.27
2023-03-28T04:46:25.456Z,16.77
2023-03-28T04:48:56.734Z,10.63
2023-03-28T04:51:25.182Z,15.90
2023-03-28T04:53:51.822Z,12.10
2023-03-28T04:56:18.376Z,12.10
2023-03-28T04:58:44.935Z,12.60
2023-03-28T05:01:11.809Z,12.73
2023-03-28T05:03:38.453Z,12.57
2023-03-28T05:06:05.729Z,11.13
2023-03-28T05:08:32.999Z,20.10
2023-03-28T05:10:59.856Z,16.50
2023-03-28T05:13:26.570Z,16.70
2023-03-28T05:15:53.281Z,12.00
2023-03-28T05:18:19.942Z,10.20
2023-03-28T05:20:46.559Z,12.90
2023-03-28T05:23:13.093Z,14.10
2023-03-28T05:25:39.696Z,16.77
2023-03-28T05:28:06.534Z,12.33
2023-03-28T05:30:33.516Z,12.60
2023-03-28T05:33:00.412Z,14.43
2023-03-28T05:35:27.048Z,12.67
2023-03-28T05:37:53.700Z,11.30
2023-03-28T05:40:20.612Z,9.43
2023-03-28T05:42:47.152Z,9.13
2023-03-28T05:45:13.777Z,11.23
2023-03-28T05:47:40.603Z,12.00
2023-03-28T05:50:07.963Z,10.93
2023-03-28T05:52:34.576Z,8.73
2023-03-28T05:55:01.111Z,11.73
2023-03-28T05:57:27.649Z,11.47
2023-03-28T05:59:54.568Z,11.37
2023-03-28T06:02:21.816Z,13.53
2023-03-28T06:04:48.693Z,11.83
2023-03-28T06:07:16.216Z,10.17
2023-03-28T06:09:42.965Z,13.37
2023-03-28T06:12:09.600Z,10.20
2023-03-28T06:14:36.810Z,9.17
2023-03-28T06:17:03.806Z,9.53
2023-03-28T06:19:30.836Z,14.27
2023-03-28T06:21:57.499Z,12.83
2023-03-28T06:24:24.584Z,17.17
2023-03-28T06:26:51.658Z,11.27
2023-03-28T06:29:19.801Z,14.57
2023-03-28T06:31:46.898Z,14.27
2023-03-28T06:34:13.593Z,12.37
2023-03-28T06:36:40.264Z,13.43
2023-03-28T06:39:07.460Z,10.77
2023-03-28T06:41:34.229Z,13.93
2023-03-28T06:44:01.129Z,6.40
2023-03-28T06:46:27.713Z,12.63
2023-03-28T06:48:54.290Z,12.13
2023-03-28T06:51:21.292Z,8.87
2023-03-28T06:53:47.912Z,9.60
2023-03-28T06:56:14.621Z,12.20
2023-03-28T06:58:41.197Z,5.73
2023-03-28T07:01:07.816Z,11.43
2023-03-28T07:03:34.607Z,11.33
2023-03-28T07:06:06.146Z,9.53
2023-03-28T07:08:32.796Z,10.37
2023-03-28T07:10:59.598Z,9.00
2023-03-28T07:13:26.437Z,12.67
2023-03-28T07:16:10.735Z,12.90
2023-03-28T07:18:37.656Z,12.90
2023-03-28T07:21:10.574Z,10.93
2023-03-28T07:23:39.403Z,11.37
2023-03-28T07:26:09.665Z,13.60
2023-03-28T07:28:36.711Z,15.37
2023-03-28T07:31:04.896Z,9.57
2023-03-28T07:33:36.829Z,13.20
2023-03-28T07:36:07.763Z,11.70
2023-03-28T07:38:35.315Z,11.37
2023-03-28T07:41:02.151Z,9.57
2023-03-28T07:43:29.034Z,14.37
2023-03-28T07:46:02.666Z,12.37
2023-03-28T07:48:29.751Z,7.63
2023-03-28T07:50:56.464Z,8.77
2023-03-28T07:53:23.157Z,9.83
2023-03-28T07:55:55.284Z,6.53
2023-03-28T07:58:22.508Z,10.67
2023-03-28T08:00:49.391Z,13.90
2023-03-28T08:03:17.286Z,13.87
2023-03-28T08:05:51.558Z,11.93
2023-03-28T08:08:19.401Z,10.63
2023-03-28T08:10:46.552Z,11.97
2023-03-28T08:13:13.532Z,12.93
2023-03-28T08:15:40.393Z,11.60
2023-03-28T08:18:08.529Z,11.90
2023-03-28T08:20:35.412Z,7.00
2023-03-28T08:23:03.123Z,11.47
2023-03-28T08:25:29.755Z,16.40
2023-03-28T08:27:56.629Z,10.73
2023-03-28T08:30:23.360Z,10.63
2023-03-28T08:32:51.082Z,8.20
2023-03-28T08:35:17.828Z,11.83
2023-03-28T08:37:44.399Z,6.60
2023-03-28T08:40:16.445Z,6.33
2023-03-28T08:42:52.313Z,12.60
2023-03-28T08:45:19.027Z,10.63
2023-03-28T08:48:00.385Z,6.20
2023-03-28T08:50:34.543Z,10.97
2023-03-28T08:53:01.722Z,9.13
2023-03-28T08:55:32.663Z,8.00
2023-03-28T08:57:59.589Z,9.80
2023-03-28T09:00:27.706Z,11.67
2023-03-28T09:02:54.938Z,15.30
2023-03-28T09:05:41.829Z,11.47
2023-03-28T09:08:20.946Z,7.60
2023-03-28T09:10:51.607Z,11.70
2023-03-28T09:13:33.950Z,10.07
2023-03-28T09:16:10.308Z,9.53
2023-03-28T09:18:37.324Z,10.23
2023-03-28T09:21:12.979Z,11.80
2023-03-28T09:23:42.657Z,9.47
2023-03-28T09:26:22.252Z,12.33
2023-03-28T09:29:09.222Z,10.10
2023-03-28T09:31:40.138Z,6.47
2023-03-28T09:34:07.257Z,10.83
2023-03-28T09:36:48.247Z,7.07
2023-03-28T09:39:22.081Z,6.73
2023-03-28T09:41:54.946Z,9.40
2023-03-28T09:44:25.699Z,6.80
2023-03-28T09:46:53.942Z,6.67
2023-03-28T09:49:23.188Z,5.73
2023-03-28T09:51:51.638Z,11.67
2023-03-28T09:54:23.672Z,8.17
2023-03-28T09:56:50.353Z,7.23
2023-03-28T09:59:28.776Z,11.73
2023-03-28T10:01:56.289Z,5.90
2023-03-28T10:04:28.991Z,5.67
2023-03-28T10:06:56.450Z,6.00
2023-03-28T10:09:24.411Z,8.63
2023-03-28T10:11:55.610Z,6.47
2023-03-28T10:14:31.321Z,4.67
2023-03-28T10:17:16.713Z,5.00
2023-03-28T10:19:44.962Z,9.00
2023-03-28T10:22:41.252Z,6.83
2023-03-28T10:25:13.610Z,3.87
2023-03-28T10:27:40.944Z,4.63
2023-03-28T10:30:13.730Z,4.07
2023-03-28T10:32:41.024Z,7.27
2023-03-28T10:35:09.936Z,5.17
2023-03-28T10:37:36.718Z,5.50
2023-03-28T10:40:22.382Z,7.37
2023-03-28T10:42:52.317Z,5.33
2023-03-28T10:45:39.454Z,6.30
2023-03-28T10:48:16.584Z,4.70
2023-03-28T10:50:46.174Z,7.00
2023-03-28T10:53:12.632Z,6.27
2023-03-28T10:55:48.295Z,3.57
2023-03-28T10:58:19.557Z,8.13
2023-03-28T11:00:56.063Z,4.53
2023-03-28T11:03:34.967Z,4.37
2023-03-28T11:06:10.010Z,3.53
2023-03-28T11:08:37.237Z,4.67
2023-03-28T11:11:12.957Z,5.73
2023-03-28T11:14:02.817Z,4.40
2023-03-28T11:16:46.747Z,6.63
2023-03-28T11:19:29.749Z,6.50
2023-03-28T11:22:12.935Z,4.27
2023-03-28T11:24:51.929Z,5.53
2023-03-28T11:27:23.944Z,4.53
2023-03-28T11:29:55.496Z,7.70
2023-03-28T11:32:24.730Z,4.90
2023-03-28T11:34:51.702Z,8.93
2023-03-28T11:37:22.800Z,10.83
2023-03-28T11:39:52.773Z,6.37
2023-03-28T11:42:27.624Z,7.77
2023-03-28T11:45:04.256Z,8.30
2023-03-28T11:47:49.950Z,4.33
2023-03-28T11:50:17.090Z,6.17
2023-03-28T11:52:49.611Z,6.93
2023-03-28T11:55:16.147Z,5.00
2023-03-28T11:57:45.474Z,4.70
2023-03-28T12:00:26.397Z,8.77
2023-03-28T12:03:18.173Z,8.13
2023-03-28T12:05:54.636Z,5.67
2023-03-28T12:08:26.612Z,6.50
2023-03-28T12:10:56.491Z,5.03
2023-03-28T12:13:30.505Z,9.33
2023-03-28T12:16:02.214Z,6.47
2023-03-28T12:18:28.825Z,8.93
2023-03-28T12:21:06.837Z,7.33
2023-03-28T12:23:51.932Z,5.43
2023-03-28T12:26:26.519Z,7.90
2023-03-28T12:28:54.725Z,6.73
2023-03-28T12:31:41.736Z,9.13
2023-03-28T12:34:12.603Z,7.47
2023-03-28T12:36:50.369Z,8.30
2023-03-28T12:39:35.416Z,7.77
2023-03-28T12:42:03.512Z,11.80
2023-03-28T12:44:33.838Z,7.10
2023-03-28T12:47:14.342Z,6.40
2023-03-28T12:49:53.093Z,9.00
2023-03-28T12:52:22.548Z,7.67
2023-03-28T12:55:03.379Z,11.27
2023-03-28T12:57:45.798Z,6.73
2023-03-28T13:00:24.828Z,7.63
2023-03-28T13:02:51.435Z,8.93
2023-03-28T13:05:23.344Z,6.10
2023-03-28T13:08:09.098Z,11.13
2023-03-28T13:10:58.770Z,7.30
2023-03-28T13:13:34.278Z,6.50
2023-03-28T13:16:01.387Z,6.27
2023-03-28T13:18:31.618Z,4.10
2023-03-28T13:21:00.211Z,4.00
2023-03-28T13:23:31.670Z,6.67
2023-03-28T13:25:59.488Z,6.20
2023-03-28T13:28:30.711Z,8.13
2023-03-28T13:31:06.117Z,4.90
2023-03-28T13:33:34.164Z,7.60
2023-03-28T13:36:03.965Z,6.17
2023-03-28T13:38:30.664Z,4.97
2023-03-28T13:41:00.064Z,3.37
2023-03-28T13:43:28.253Z,6.13
2023-03-28T13:45:59.021Z,4.63
2023-03-28T13:48:29.028Z,4.23
2023-03-28T13:50:58.397Z,7.67
2023-03-28T13:53:28.214Z,3.27
2023-03-28T13:56:23.946Z,6.97
2023-03-28T13:58:55.636Z,5.33
2023-03-28T14:01:27.023Z,4.60
2023-03-28T14:03:54.662Z,6.20
2023-03-28T14:06:22.656Z,5.00
2023-03-28T14:08:50.798Z,8.03
2023-03-28T14:11:19.190Z,6.43
2023-03-28T14:13:46.143Z,5.30
2023-03-28T14:16:12.794Z,5.93
2023-03-28T14:18:41.913Z,7.03
2023-03-28T14:21:08.854Z,6.80
2023-03-28T14:23:36.773Z,7.07
2023-03-28T14:26:23.686Z,5.33
2023-03-28T14:28:51.190Z,4.13
2023-03-28T14:31:37.616Z,6.07
2023-03-28T14:34:18.026Z,4.70
2023-03-28T14:37:01.209Z,4.10
2023-03-28T14:39:29.403Z,4.57
2023-03-28T14:41:59.571Z,6.07
2023-03-28T14:44:26.209Z,6.50
2023-03-28T14:46:56.697Z,4.87
2023-03-28T14:49:24.635Z,6.00
2023-03-28T14:51:57.512Z,5.13
2023-03-28T14:54:27.417Z,4.87
2023-03-28T14:56:55.138Z,5.90
2023-03-28T14:59:23.968Z,5.07
2023-03-28T15:01:52.024Z,9.63
2023-03-28T15:04:20.360Z,6.10
2023-03-28T15:06:56.867Z,4.43
2023-03-28T15:09:28.423Z,6.03
2023-03-28T15:11:56.111Z,4.93
2023-03-28T15:14:22.573Z,5.73
2023-03-28T15:16:49.251Z,5.50
2023-03-28T15:19:22.296Z,6.83
2023-03-28T15:21:53.000Z,6.70
2023-03-28T15:24:19.743Z,6.10
2023-03-28T15:26:47.753Z,3.97
2023-03-28T15:29:16.535Z,7.13
2023-03-28T15:31:43.174Z,5.77
2023-03-28T15:34:11.268Z,7.13
2023-03-28T15:36:38.162Z,7.63
2023-03-28T15:39:17.899Z,5.37
2023-03-28T15:41:48.443Z,6.80
2023-03-28T15:44:14.911Z,7.97
2023-03-28T15:46:41.500Z,7.93
2023-03-28T15:49:08.201Z,6.23
2023-03-28T15:51:43.798Z,9.10
2023-03-28T15:54:23.860Z,5.20
2023-03-28T15:56:56.379Z,7.83
2023-03-28T15:59:30.465Z,6.83
2023-03-28T16:02:21.387Z,8.73
2023-03-28T16:04:56.865Z,5.73
2023-03-28T16:07:23.416Z,7.03
2023-03-28T16:09:51.334Z,5.23
2023-03-28T16:12:18.430Z,6.67
2023-03-28T16:14:54.384Z,5.07
2023-03-28T16:17:25.091Z,6.57
2023-03-28T16:19:52.347Z,6.83
2023-03-28T16:22:21.146Z,7.30
2023-03-28T16:24:51.712Z,8.90
2023-03-28T16:27:19.090Z,7.00
2023-03-28T16:29:45.918Z,4.87
2023-03-28T16:32:13.472Z,5.73
2023-03-28T16:34:40.280Z,8.73
2023-03-28T16:37:07.530Z,6.50
2023-03-28T16:39:34.096Z,8.60
2023-03-28T16:42:00.862Z,11.83
2023-03-28T16:44:27.486Z,9.53
2023-03-28T16:46:55.125Z,5.40
2023-03-28T16:49:21.726Z,8.83
2023-03-28T16:51:48.454Z,6.13
2023-03-28T16:54:15.203Z,6.30
2023-03-28T16:56:42.649Z,11.13
2023-03-28T16:59:10.265Z,10.07
2023-03-28T17:01:37.326Z,6.80
2023-03-28T17:04:04.190Z,4.27
2023-03-28T17:06:30.988Z,7.53
2023-03-28T17:08:58.902Z,6.37
2023-03-28T17:11:26.313Z,5.33
2023-03-28T17:13:54.561Z,8.47
2023-03-28T17:16:22.450Z,6.30
2023-03-28T17:18:49.842Z,6.57
2023-03-28T17:21:17.326Z,8.80
2023-03-28T17:23:44.904Z,10.53
2023-03-28T17:26:12.305Z,2.87
2023-03-28T17:28:42.083Z,7.83
2023-03-28T17:31:13.856Z,10.03
2023-03-28T17:33:40.729Z,9.23
2023-03-28T17:36:27.538Z,12.10
2023-03-28T17:38:55.747Z,5.83
2023-03-28T17:41:23.298Z,6.30
2023-03-28T17:43:50.781Z,9.10
2023-03-28T17:46:17.591Z,7.43
2023-03-28T17:48:44.155Z,7.50
2023-03-28T17:51:11.340Z,5.80
2023-03-28T17:53:41.760Z,7.43
2023-03-28T17:56:09.782Z,7.90
2023-03-28T17:58:37.761Z,6.90
2023-03-28T18:01:12.012Z,7.50
2023-03-28T18:03:42.368Z,6.03
2023-03-28T18:06:09.383Z,8.97
2023-03-28T18:08:36.391Z,4.73
2023-03-28T18:11:07.983Z,8.70
2023-03-28T18:13:36.104Z,8.47
2023-03-28T18:16:06.445Z,7.20
2023-03-28T18:18:33.604Z,6.10
2023-03-28T18:21:00.436Z,6.13
2023-03-28T18:23:27.354Z,7.93
2023-03-28T18:25:54.030Z,6.90
2023-03-28T18:28:23.483Z,7.80
2023-03-28T18:30:51.195Z,6.43
2023-03-28T18:33:18.791Z,11.23
2023-03-28T18:35:46.512Z,7.10
2023-03-28T18:38:13.381Z,8.70
2023-03-28T18:40:40.212Z,7.70
2023-03-28T18:43:07.266Z,12.20
2023-03-28T18:45:37.357Z,7.87
2023-03-28T18:48:04.360Z,9.73
2023-03-28T18:50:31.432Z,6.87
2023-03-28T18:52:58.679Z,5.87
2023-03-28T18:55:25.326Z,10.57
2023-03-28T18:57:53.096Z,7.87
2023-03-28T19:00:20.425Z,10.03
2023-03-28T19:02:49.025Z,10.63
2023-03-28T19:05:16.228Z,6.90
2023-03-28T19:07:43.294Z,7.97
2023-03-28T19:10:11.902Z,8.57
2023-03-28T19:12:38.477Z,7.33
2023-03-28T19:15:06.098Z,8.27
2023-03-28T19:17:33.843Z,8.33
2023-03-28T19:20:03.593Z,7.77
2023-03-28T19:22:30.194Z,5.93
2023-03-28T19:24:57.115Z,7.03
2023-03-28T19:27:23.944Z,7.53
2023-03-28T19:29:50.924Z,8.43
2023-03-28T19:32:18.020Z,8.17
2023-03-28T19:34:46.362Z,10.70
2023-03-28T19:37:13.015Z,9.43
2023-03-28T19:39:39.655Z,9.60
2023-03-28T19:42:06.695Z,8.23
2023-03-28T19:44:33.433Z,9.93
2023-03-28T19:47:00.684Z,8.87
2023-03-28T19:49:27.359Z,8.47
2023-03-28T19:51:54.697Z,5.20
2023-03-28T19:54:22.149Z,8.07
2023-03-28T19:56:49.094Z,8.07
2023-03-28T19:59:15.821Z,8.90
2023-03-28T20:01:42.552Z,8.80
2023-03-28T20:04:09.620Z,7.53
2023-03-28T20:06:36.717Z,7.30
2023-03-28T20:09:03.702Z,8.13
2023-03-28T20:11:30.953Z,7.43
2023-03-28T20:13:57.640Z,8.23
2023-03-28T20:16:24.468Z,8.50
2023-03-28T20:18:51.110Z,7.10
2023-03-28T20:21:17.774Z,5.67
2023-03-28T20:23:44.422Z,9.33
2023-03-28T20:26:12.240Z,6.83
2023-03-28T20:28:40.101Z,8.20
2023-03-28T20:31:09.614Z,9.57
2023-03-28T20:33:38.349Z,10.37
2023-03-28T20:36:05.953Z,9.90
2023-03-28T20:38:32.718Z,8.97
2023-03-28T20:40:59.850Z,9.77
2023-03-28T20:43:29.436Z,10.57
2023-03-28T20:45:57.500Z,9.13
2023-03-28T20:48:34.655Z,8.13
2023-03-28T20:51:06.485Z,11.33
2023-03-28T20:53:33.294Z,7.13
2023-03-28T20:56:01.909Z,9.97
2023-03-28T20:58:29.649Z,9.90
2023-03-28T21:00:57.966Z,10.37
2023-03-28T21:03:39.257Z,12.43
2023-03-28T21:06:06.692Z,11.30
2023-03-28T21:08:36.423Z,11.30
2023-03-28T21:11:03.830Z,7.43
2023-03-28T21:13:30.940Z,7.67
2023-03-28T21:15:57.584Z,8.57
2023-03-28T21:18:25.030Z,8.67
2023-03-28T21:20:52.112Z,9.80
2023-03-28T21:23:18.739Z,8.60
2023-03-28T21:25:45.486Z,10.57
2023-03-28T21:28:12.625Z,8.30
2023-03-28T21:30:40.334Z,7.97
2023-03-28T21:33:07.072Z,14.60
2023-03-28T21:35:34.358Z,10.40
2023-03-28T21:38:01.045Z,8.10
2023-03-28T21:40:27.620Z,12.03
2023-03-28T21:42:54.128Z,8.63
2023-03-28T21:45:21.106Z,9.07
2023-03-28T21:47:48.828Z,11.60
2023-03-28T21:50:16.874Z,11.70
2023-03-28T21:52:43.489Z,9.13
2023-03-28T21:55:10.036Z,9.63
2023-03-28T21:57:36.854Z,10.27
2023-03-28T22:00:14.894Z,9.80
2023-03-28T22:02:42.101Z,8.40
2023-03-28T22:05:22.009Z,11.97
2023-03-28T22:07:55.085Z,7.30
2023-03-28T22:10:26.495Z,8.43
2023-03-28T22:12:53.593Z,8.60
2023-03-28T22:15:20.337Z,8.33
2023-03-28T22:17:46.957Z,7.80
2023-03-28T22:20:14.452Z,9.93
2023-03-28T22:22:44.774Z,8.57
2023-03-28T22:25:12.917Z,6.03
2023-03-28T22:27:39.650Z,11.33
2023-03-28T22:30:09.677Z,10.03
2023-03-28T22:32:38.746Z,8.57
2023-03-28T22:35:06.005Z,6.37
2023-03-28T22:37:33.209Z,8.27
2023-03-28T22:39:59.806Z,9.00
2023-03-28T22:42:26.735Z,6.07
2023-03-28T22:44:53.422Z,7.97
2023-03-28T22:47:20.038Z,6.50
2023-03-28T22:49:46.599Z,6.43
2023-03-28T22:52:13.741Z,7.07
2023-03-28T22:54:42.672Z,4.67
2023-03-28T22:57:09.745Z,6.33
2023-03-28T22:59:36.547Z,5.17
2023-03-28T23:02:03.278Z,7.57
2023-03-28T23:04:30.039Z,8.50
2023-03-28T23:06:58.624Z,4.63
2023-03-28T23:09:27.358Z,5.43
2023-03-28T23:11:55.151Z,5.53
2023-03-28T23:14:22.233Z,4.73
2023-03-28T23:16:48.907Z,5.73
2023-03-28T23:19:16.449Z,5.53
2023-03-28T23:21:43.340Z,7.83
2023-03-28T23:24:09.859Z,5.13
2023-03-28T23:26:36.462Z,6.50
2023-03-28T23:29:05.174Z,5.43
2023-03-28T23:31:31.934Z,5.80
2023-03-28T23:33:58.548Z,5.07
2023-03-28T23:36:26.127Z,6.23
2023-03-28T23:38:53.158Z,4.13
2023-03-28T23:41:19.720Z,4.83
2023-03-28T23:43:46.286Z,6.77
2023-03-28T23:46:12.851Z,6.20
2023-03-28T23:48:39.441Z,5.63
2023-03-28T23:51:06.205Z,4.33
2023-03-28T23:53:32.805Z,5.60
2023-03-28T23:55:59.369Z,5.60
2023-03-28T23:58:25.978Z,5.23
